createdAt,value
2023-03-25T00:01:08.576Z,57.39
2023-03-25T00:03:41.327Z,57.36
2023-03-25T00:06:10.204Z,57.41
2023-03-25T00:08:37.132Z,57.63
2023-03-25T00:11:04.832Z,57.71
2023-03-25T00:13:31.292Z,57.67
2023-03-25T00:15:58.363Z,57.58
2023-03-25T00:18:34.799Z,57.59
2023-03-25T00:21:02.647Z,57.80
2023-03-25T00:23:30.979Z,57.74
2023-03-25T00:26:00.847Z,57.99
2023-03-25T00:28:30.278Z,58.01
2023-03-25T00:31:05.704Z,58.29
2023-03-25T00:33:32.683Z,58.38
2023-03-25T00:35:59.596Z,58.29
2023-03-25T00:38:32.831Z,58.34
2023-03-25T00:41:11.846Z,58.29
2023-03-25T00:43:39.851Z,58.34
2023-03-25T00:46:06.442Z,58.38
2023-03-25T00:48:33.063Z,58.76
2023-03-25T00:51:06.536Z,58.69
2023-03-25T00:53:33.865Z,58.76
2023-03-25T00:56:00.848Z,58.80
2023-03-25T00:58:28.859Z,58.86
2023-03-25T01:00:58.912Z,59.08
2023-03-25T01:03:28.226Z,59.07
2023-03-25T01:05:57.296Z,58.93
2023-03-25T01:08:24.625Z,59.19
2023-03-25T01:10:54.945Z,59.22
2023-03-25T01:13:22.622Z,59.28
2023-03-25T01:15:49.480Z,59.28
2023-03-25T01:18:16.621Z,59.42
2023-03-25T01:20:43.798Z,59.43
2023-03-25T01:23:10.804Z,59.54
2023-03-25T01:25:37.653Z,59.65
2023-03-25T01:28:05.080Z,59.64
2023-03-25T01:30:31.555Z,59.75
2023-03-25T01:32:58.557Z,59.94
2023-03-25T01:35:25.823Z,60.00
2023-03-25T01:37:53.810Z,60.05
2023-03-25T01:40:23.198Z,60.09
2023-03-25T01:42:50.191Z,60.12
2023-03-25T01:45:22.464Z,60.11
2023-03-25T01:47:55.873Z,60.18
2023-03-25T01:50:22.505Z,60.29
2023-03-25T01:52:51.540Z,60.29
2023-03-25T01:55:24.116Z,60.29
2023-03-25T01:57:54.884Z,60.32
2023-03-25T02:00:22.395Z,60.47
2023-03-25T02:02:50.188Z,60.46
2023-03-25T02:05:24.761Z,60.51
2023-03-25T02:07:52.059Z,60.71
2023-03-25T02:10:19.306Z,60.64
2023-03-25T02:12:46.496Z,60.77
2023-03-25T02:15:17.332Z,60.63
2023-03-25T02:17:53.433Z,60.64
2023-03-25T02:20:38.632Z,60.76
2023-03-25T02:23:21.340Z,60.82
2023-03-25T02:26:29.215Z,60.80
2023-03-25T02:29:07.189Z,60.94
2023-03-25T02:32:02.544Z,61.02
2023-03-25T02:34:45.664Z,60.90
2023-03-25T02:37:27.946Z,61.07
2023-03-25T02:40:06.534Z,61.08
2023-03-25T02:42:51.461Z,61.10
2023-03-25T02:45:32.500Z,61.21
2023-03-25T02:48:05.221Z,61.21
2023-03-25T02:50:51.500Z,61.38
2023-03-25T02:53:26.683Z,61.43
2023-03-25T02:55:58.578Z,61.46
2023-03-25T02:58:29.311Z,61.56
2023-03-25T03:00:58.177Z,61.59
2023-03-25T03:03:28.375Z,61.57
2023-03-25T03:06:02.170Z,61.62
2023-03-25T03:08:47.058Z,61.68
2023-03-25T03:11:37.335Z,61.75
2023-03-25T03:14:21.930Z,61.89
2023-03-25T03:17:07.817Z,61.91
2023-03-25T03:19:40.617Z,61.97
2023-03-25T03:22:37.610Z,61.96
2023-03-25T03:25:19.447Z,62.02
2023-03-25T03:27:53.687Z,62.02
2023-03-25T03:30:45.917Z,61.97
2023-03-25T03:33:24.808Z,62.13
2023-03-25T03:36:03.848Z,62.14
2023-03-25T03:38:36.768Z,62.24
2023-03-25T03:41:10.321Z,62.23
2023-03-25T03:43:42.818Z,62.27
2023-03-25T03:46:24.096Z,62.33
2023-03-25T03:48:56.819Z,62.45
2023-03-25T03:51:30.155Z,62.26
2023-03-25T03:54:01.842Z,62.26
2023-03-25T03:56:36.521Z,62.38
2023-03-25T03:59:13.799Z,62.36
2023-03-25T04:01:47.437Z,62.45
2023-03-25T04:04:21.634Z,62.36
2023-03-25T04:07:09.915Z,62.86
2023-03-25T04:09:54.339Z,63.35
2023-03-25T04:12:32.934Z,63.85
2023-03-25T04:15:05.631Z,64.49
2023-03-25T04:17:34.836Z,64.21
2023-03-25T04:20:08.032Z,64.30
2023-03-25T04:22:38.466Z,65.06
2023-03-25T04:25:06.541Z,63.93
2023-03-25T04:27:37.012Z,63.72
2023-03-25T04:30:05.389Z,63.76
2023-03-25T04:32:32.014Z,63.64
2023-03-25T04:34:59.347Z,63.42
2023-03-25T04:37:33.175Z,63.61
2023-03-25T04:40:00.708Z,63.60
2023-03-25T04:42:32.034Z,63.63
2023-03-25T04:44:59.052Z,63.64
2023-03-25T04:47:27.028Z,63.70
2023-03-25T04:49:54.003Z,63.58
2023-03-25T04:52:20.606Z,63.73
2023-03-25T04:54:47.208Z,63.77
2023-03-25T04:57:14.647Z,63.65
2023-03-25T04:59:41.609Z,63.74
2023-03-25T05:02:12.536Z,63.78
2023-03-25T05:04:41.556Z,63.90
2023-03-25T05:07:08.182Z,63.90
2023-03-25T05:09:34.682Z,63.97
2023-03-25T05:12:01.151Z,63.93
2023-03-25T05:14:27.653Z,63.97
2023-03-25T05:16:56.806Z,64.04
2023-03-25T05:19:23.256Z,64.07
2023-03-25T05:21:49.749Z,64.08
2023-03-25T05:24:16.820Z,64.09
2023-03-25T05:26:43.355Z,64.29
2023-03-25T05:29:13.391Z,64.33
2023-03-25T05:31:45.829Z,64.34
2023-03-25T05:34:13.880Z,64.41
2023-03-25T05:36:41.177Z,64.40
2023-03-25T05:39:07.906Z,64.39
2023-03-25T05:41:38.263Z,64.37
2023-03-25T05:44:06.847Z,64.36
2023-03-25T05:46:34.120Z,64.45
2023-03-25T05:49:01.298Z,64.59
2023-03-25T05:51:36.830Z,64.77
2023-03-25T05:54:08.127Z,64.77
2023-03-25T05:56:36.393Z,64.71
2023-03-25T05:59:04.422Z,65.05
2023-03-25T06:01:34.400Z,64.93
2023-03-25T06:04:03.584Z,64.82
2023-03-25T06:06:33.559Z,64.88
2023-03-25T06:09:00.543Z,64.98
2023-03-25T06:11:27.526Z,64.98
2023-03-25T06:13:54.567Z,65.06
2023-03-25T06:16:26.786Z,65.16
2023-03-25T06:18:58.729Z,65.16
2023-03-25T06:21:32.245Z,65.21
2023-03-25T06:24:01.141Z,65.27
2023-03-25T06:26:27.844Z,65.39
2023-03-25T06:28:54.867Z,65.34
2023-03-25T06:31:25.879Z,65.34
2023-03-25T06:33:52.990Z,65.58
2023-03-25T06:36:20.315Z,65.44
2023-03-25T06:38:49.744Z,65.45
2023-03-25T06:41:20.376Z,65.46
2023-03-25T06:43:48.735Z,65.58
2023-03-25T06:46:16.165Z,65.70
2023-03-25T06:48:42.711Z,65.82
2023-03-25T06:51:10.840Z,65.88
2023-03-25T06:53:37.966Z,66.11
2023-03-25T06:56:04.791Z,66.17
2023-03-25T06:58:34.111Z,65.91
2023-03-25T07:01:05.444Z,66.02
2023-03-25T07:03:36.467Z,65.88
2023-03-25T07:06:05.759Z,66.11
2023-03-25T07:08:33.108Z,66.18
2023-03-25T07:11:04.551Z,66.50
2023-03-25T07:13:31.078Z,66.58
2023-03-25T07:15:58.599Z,66.81
2023-03-25T07:18:25.952Z,67.63
2023-03-25T07:20:52.479Z,67.31
2023-03-25T07:23:19.576Z,67.07
2023-03-25T07:25:46.550Z,67.16
2023-03-25T07:28:13.403Z,67.91
2023-03-25T07:30:40.397Z,67.16
2023-03-25T07:33:07.084Z,67.96
2023-03-25T07:35:33.669Z,67.84
2023-03-25T07:38:00.826Z,68.05
2023-03-25T07:40:37.831Z,67.63
2023-03-25T07:43:05.223Z,67.31
2023-03-25T07:45:44.375Z,68.14
2023-03-25T07:48:15.601Z,68.18
2023-03-25T07:50:45.857Z,68.53
2023-03-25T07:53:13.247Z,68.42
2023-03-25T07:55:50.338Z,68.95
2023-03-25T07:58:18.902Z,68.47
2023-03-25T08:00:47.984Z,67.92
2023-03-25T08:03:17.596Z,67.76
2023-03-25T08:05:48.160Z,67.72
2023-03-25T08:08:17.661Z,67.96
2023-03-25T08:10:47.650Z,67.83
2023-03-25T08:13:14.925Z,68.21
2023-03-25T08:15:41.799Z,68.45
2023-03-25T08:18:08.597Z,68.14
2023-03-25T08:20:35.798Z,67.76
2023-03-25T08:23:02.949Z,67.52
2023-03-25T08:25:31.029Z,67.64
2023-03-25T08:27:58.127Z,67.95
2023-03-25T08:30:24.860Z,67.77
2023-03-25T08:32:54.307Z,67.59
2023-03-25T08:35:24.546Z,67.47
2023-03-25T08:37:51.575Z,67.76
2023-03-25T08:40:19.369Z,67.45
2023-03-25T08:42:48.258Z,67.54
2023-03-25T08:45:15.642Z,67.46
2023-03-25T08:47:43.437Z,67.45
2023-03-25T08:50:10.781Z,67.50
2023-03-25T08:52:40.623Z,67.59
2023-03-25T08:55:09.813Z,67.54
2023-03-25T08:57:39.140Z,67.63
2023-03-25T09:00:15.352Z,67.64
2023-03-25T09:02:47.189Z,67.49
2023-03-25T09:05:18.448Z,67.69
2023-03-25T09:07:51.172Z,67.72
2023-03-25T09:10:27.638Z,67.69
2023-03-25T09:12:54.496Z,67.75
2023-03-25T09:15:26.333Z,67.71
2023-03-25T09:17:53.620Z,67.80
2023-03-25T09:20:20.880Z,67.83
2023-03-25T09:22:47.626Z,67.82
2023-03-25T09:25:14.879Z,67.88
2023-03-25T09:27:41.700Z,67.80
2023-03-25T09:30:09.814Z,67.73
2023-03-25T09:32:38.478Z,67.84
2023-03-25T09:35:06.444Z,67.94
2023-03-25T09:37:37.028Z,67.95
2023-03-25T09:40:08.423Z,67.83
2023-03-25T09:42:52.835Z,67.81
2023-03-25T09:45:33.895Z,67.83
2023-03-25T09:48:46.924Z,67.78
2023-03-25T09:51:41.080Z,67.86
2023-03-25T09:54:18.437Z,67.77
2023-03-25T09:56:47.013Z,67.70
2023-03-25T09:59:17.982Z,67.60
2023-03-25T10:02:19.115Z,67.67
2023-03-25T10:05:27.800Z,67.69
2023-03-25T10:08:04.109Z,67.76
2023-03-25T10:11:40.151Z,67.71
2023-03-25T10:19:00.539Z,67.67
2023-03-25T10:22:03.346Z,67.46
2023-03-25T10:24:35.793Z,67.72
2023-03-25T10:27:35.610Z,67.59
2023-03-25T10:30:21.735Z,67.86
2023-03-25T10:33:00.966Z,67.65
2023-03-25T10:35:49.194Z,67.43
2023-03-25T10:38:23.419Z,67.47
2023-03-25T10:41:20.274Z,67.55
2023-03-25T10:43:55.606Z,67.47
2023-03-25T10:46:30.650Z,67.45
2023-03-25T10:48:59.191Z,67.41
2023-03-25T10:51:30.177Z,67.49
2023-03-25T10:54:07.725Z,67.49
2023-03-25T10:56:38.879Z,67.29
2023-03-25T10:59:32.050Z,67.29
2023-03-25T11:02:30.638Z,67.23
2023-03-25T11:05:07.292Z,67.21
2023-03-25T11:07:46.026Z,67.42
2023-03-25T11:10:49.551Z,67.13
2023-03-25T11:13:27.074Z,67.27
2023-03-25T11:15:59.071Z,67.01
2023-03-25T11:18:43.857Z,67.07
2023-03-25T11:21:15.097Z,67.03
2023-03-25T11:23:48.756Z,67.19
2023-03-25T11:26:23.505Z,67.11
2023-03-25T11:29:03.798Z,66.72
2023-03-25T11:31:34.459Z,66.91
2023-03-25T11:34:05.036Z,66.92
2023-03-25T11:36:35.052Z,66.89
2023-03-25T11:39:11.331Z,66.93
2023-03-25T11:41:37.857Z,66.84
2023-03-25T11:44:06.296Z,66.54
2023-03-25T11:46:42.517Z,66.49
2023-03-25T11:49:11.527Z,66.32
2023-03-25T11:51:38.329Z,66.36
2023-03-25T11:54:13.853Z,66.43
2023-03-25T11:56:44.283Z,66.54
2023-03-25T11:59:27.587Z,66.46
2023-03-25T12:02:18.219Z,66.24
2023-03-25T12:04:55.443Z,66.16
2023-03-25T12:07:23.754Z,66.57
2023-03-25T12:09:56.335Z,66.58
2023-03-25T12:12:42.484Z,66.28
2023-03-25T12:15:41.664Z,65.85
2023-03-25T12:18:36.654Z,66.17
2023-03-25T12:21:03.227Z,65.46
2023-03-25T12:24:29.489Z,65.93
2023-03-25T12:27:13.657Z,66.05
2023-03-25T12:30:01.954Z,65.94
2023-03-25T12:32:34.198Z,65.94
2023-03-25T12:35:13.688Z,65.81
2023-03-25T12:38:12.967Z,65.82
2023-03-25T12:41:01.279Z,65.42
2023-03-25T12:43:58.633Z,65.37
2023-03-25T12:46:49.176Z,65.28
2023-03-25T12:49:34.649Z,65.19
2023-03-25T12:52:19.505Z,65.11
2023-03-25T12:54:55.126Z,64.86
2023-03-25T12:57:55.503Z,64.60
2023-03-25T13:00:29.669Z,64.62
2023-03-25T13:03:35.458Z,64.82
2023-03-25T13:06:25.721Z,64.97
2023-03-25T13:09:16.652Z,64.67
2023-03-25T13:11:51.125Z,64.66
2023-03-25T13:14:31.484Z,64.23
2023-03-25T13:17:03.256Z,64.08
2023-03-25T13:19:35.909Z,64.31
2023-03-25T13:22:17.830Z,64.53
2023-03-25T13:25:11.287Z,64.56
2023-03-25T13:27:42.711Z,64.18
2023-03-25T13:30:36.355Z,64.46
2023-03-25T13:33:16.602Z,64.19
2023-03-25T13:36:09.069Z,63.88
2023-03-25T13:39:05.933Z,63.77
2023-03-25T13:41:56.482Z,63.80
2023-03-25T13:44:33.275Z,63.62
2023-03-25T13:47:15.362Z,63.61
2023-03-25T13:50:00.102Z,63.56
2023-03-25T13:52:35.940Z,63.63
2023-03-25T13:55:33.401Z,63.37
2023-03-25T13:58:36.542Z,63.48
2023-03-25T14:01:20.177Z,62.68
2023-03-25T14:03:46.745Z,62.85
2023-03-25T14:06:34.534Z,63.03
2023-03-25T14:09:41.062Z,62.83
2023-03-25T14:12:29.444Z,62.81
2023-03-25T14:15:08.579Z,62.91
2023-03-25T14:17:39.795Z,62.15
2023-03-25T14:20:14.555Z,62.58
2023-03-25T14:23:35.416Z,62.58
2023-03-25T14:30:19.692Z,62.40
2023-03-25T14:32:53.412Z,61.90
2023-03-25T14:35:37.821Z,61.81
2023-03-25T14:38:42.945Z,61.92
2023-03-25T14:41:09.716Z,61.93
2023-03-25T14:44:29.703Z,61.88
2023-03-25T14:47:39.903Z,61.61
2023-03-25T14:56:18.807Z,61.33
2023-03-25T14:58:50.298Z,61.34
2023-03-25T15:01:23.802Z,61.37
2023-03-25T15:04:10.795Z,61.36
2023-03-25T15:06:43.382Z,61.28
2023-03-25T15:09:14.427Z,61.05
2023-03-25T15:12:17.119Z,59.36
2023-03-25T15:18:08.778Z,60.54
2023-03-25T15:20:35.306Z,61.66
2023-03-25T15:23:23.586Z,62.26
2023-03-25T15:25:52.279Z,62.56
2023-03-25T15:28:37.117Z,62.08
2023-03-25T15:31:27.509Z,61.62
2023-03-25T15:34:14.816Z,61.60
2023-03-25T15:37:10.068Z,61.80
2023-03-25T15:40:44.775Z,61.91
2023-03-25T15:43:20.125Z,61.95
2023-03-25T15:46:18.219Z,61.96
2023-03-25T15:49:25.113Z,61.79
2023-03-25T15:52:41.681Z,61.85
2023-03-25T15:55:13.968Z,61.91
2023-03-25T15:58:17.630Z,61.77
2023-03-25T16:00:53.466Z,61.81
2023-03-25T16:03:30.623Z,62.03
2023-03-25T16:06:04.310Z,62.09
2023-03-25T16:08:39.262Z,62.12
2023-03-25T16:11:20.772Z,62.11
2023-03-25T16:14:04.225Z,62.07
2023-03-25T16:16:35.178Z,62.21
2023-03-25T16:19:04.250Z,62.17
2023-03-25T16:21:32.144Z,62.27
2023-03-25T16:24:04.390Z,62.35
2023-03-25T16:26:41.753Z,62.38
2023-03-25T16:29:21.811Z,62.73
2023-03-25T16:31:56.733Z,62.76
2023-03-25T16:34:25.261Z,62.74
2023-03-25T16:36:53.405Z,62.91
2023-03-25T16:39:22.300Z,62.85
2023-03-25T16:41:51.530Z,62.81
2023-03-25T16:44:23.021Z,62.74
2023-03-25T16:46:52.115Z,62.89
2023-03-25T16:49:32.397Z,62.89
2023-03-25T16:52:02.140Z,62.80
2023-03-25T16:54:37.855Z,62.79
2023-03-25T16:57:09.211Z,62.83
2023-03-25T16:59:37.547Z,62.91
2023-03-25T17:02:23.589Z,63.08
2023-03-25T17:04:50.437Z,63.15
2023-03-25T17:07:25.913Z,63.18
2023-03-25T17:09:56.941Z,63.16
2023-03-25T17:12:26.683Z,63.29
2023-03-25T17:15:00.609Z,63.37
2023-03-25T17:17:40.904Z,63.45
2023-03-25T17:20:17.368Z,63.54
2023-03-25T17:23:07.400Z,63.51
2023-03-25T17:25:50.734Z,63.71
2023-03-25T17:28:23.697Z,63.79
2023-03-25T17:30:50.874Z,63.85
2023-03-25T17:33:38.316Z,63.86
2023-03-25T17:36:10.385Z,63.86
2023-03-25T17:38:51.680Z,63.89
2023-03-25T17:41:19.828Z,64.08
2023-03-25T17:43:52.494Z,64.07
2023-03-25T17:46:23.217Z,64.09
2023-03-25T17:48:52.625Z,64.12
2023-03-25T17:51:20.290Z,64.15
2023-03-25T17:53:48.085Z,64.18
2023-03-25T17:56:26.818Z,64.23
2023-03-25T17:59:06.793Z,64.18
2023-03-25T18:01:34.600Z,64.20
2023-03-25T18:04:01.963Z,64.11
2023-03-25T18:06:28.325Z,64.11
2023-03-25T18:08:54.732Z,64.20
2023-03-25T18:11:21.392Z,64.08
2023-03-25T18:13:48.012Z,64.10
2023-03-25T18:16:20.216Z,64.12
2023-03-25T18:18:48.040Z,64.15
2023-03-25T18:21:16.601Z,64.07
2023-03-25T18:23:46.849Z,64.16
2023-03-25T18:26:15.512Z,64.20
2023-03-25T18:28:43.025Z,64.15
2023-03-25T18:31:15.270Z,64.13
2023-03-25T18:33:43.737Z,64.21
2023-03-25T18:36:10.940Z,64.24
2023-03-25T18:38:37.833Z,64.23
2023-03-25T18:41:04.624Z,64.22
2023-03-25T18:43:31.380Z,64.29
2023-03-25T18:45:58.270Z,64.13
2023-03-25T18:48:25.038Z,64.21
2023-03-25T18:50:54.096Z,64.17
2023-03-25T18:53:27.427Z,64.23
2023-03-25T18:55:55.425Z,64.25
2023-03-25T18:58:24.992Z,64.30
2023-03-25T19:00:52.865Z,64.28
2023-03-25T19:03:29.606Z,64.36
2023-03-25T19:05:58.113Z,64.35
2023-03-25T19:08:25.693Z,64.40
2023-03-25T19:10:52.394Z,64.42
2023-03-25T19:13:20.191Z,64.30
2023-03-25T19:15:46.814Z,64.33
2023-03-25T19:18:20.390Z,64.32
2023-03-25T19:20:47.975Z,64.30
2023-03-25T19:23:16.374Z,64.43
2023-03-25T19:25:45.255Z,64.34
2023-03-25T19:28:16.829Z,64.45
2023-03-25T19:30:45.505Z,64.44
2023-03-25T19:33:12.429Z,64.44
2023-03-25T19:35:40.659Z,64.46
2023-03-25T19:38:08.181Z,64.47
2023-03-25T19:40:37.369Z,64.51
2023-03-25T19:43:06.939Z,64.49
2023-03-25T19:45:33.741Z,64.53
2023-03-25T19:48:00.978Z,64.47
2023-03-25T19:50:31.416Z,64.55
2023-03-25T19:52:59.893Z,64.56
2023-03-25T19:55:26.531Z,64.64
2023-03-25T19:57:53.830Z,64.52
2023-03-25T20:00:25.461Z,64.61
2023-03-25T20:02:57.279Z,64.61
2023-03-25T20:05:24.564Z,64.53
2023-03-25T20:07:51.381Z,64.55
2023-03-25T20:10:21.537Z,64.55
2023-03-25T20:12:50.037Z,64.56
2023-03-25T20:15:18.495Z,64.55
2023-03-25T20:17:47.106Z,64.53
2023-03-25T20:20:13.724Z,64.52
2023-03-25T20:22:40.533Z,64.49
2023-03-25T20:25:08.660Z,64.57
2023-03-25T20:27:36.356Z,64.51
2023-03-25T20:30:05.354Z,64.53
2023-03-25T20:32:40.765Z,64.54
2023-03-25T20:35:10.470Z,64.55
2023-03-25T20:37:39.103Z,64.49
2023-03-25T20:40:10.522Z,64.48
2023-03-25T20:42:39.222Z,64.54
2023-03-25T20:45:06.935Z,64.56
2023-03-25T20:47:46.986Z,64.60
2023-03-25T20:50:16.102Z,64.61
2023-03-25T20:52:46.093Z,64.55
2023-03-25T20:55:17.002Z,64.57
2023-03-25T20:57:43.693Z,64.55
2023-03-25T21:00:17.880Z,64.56
2023-03-25T21:02:49.719Z,64.51
2023-03-25T21:05:16.350Z,64.54
2023-03-25T21:07:43.071Z,64.61
2023-03-25T21:10:10.083Z,64.57
2023-03-25T21:12:43.839Z,64.55
2023-03-25T21:15:13.672Z,64.56
2023-03-25T21:17:40.792Z,64.69
2023-03-25T21:20:08.545Z,64.76
2023-03-25T21:22:35.159Z,64.73
2023-03-25T21:25:01.953Z,64.71
2023-03-25T21:27:39.234Z,64.75
2023-03-25T21:30:08.767Z,64.68
2023-03-25T21:32:35.202Z,64.82
2023-03-25T21:35:01.670Z,64.83
2023-03-25T21:37:28.609Z,64.77
2023-03-25T21:39:57.452Z,64.77
2023-03-25T21:42:24.649Z,64.90
2023-03-25T21:44:51.140Z,64.72
2023-03-25T21:47:17.685Z,64.99
2023-03-25T21:49:44.177Z,64.83
2023-03-25T21:52:12.411Z,64.81
2023-03-25T21:54:42.752Z,64.90
2023-03-25T21:57:10.710Z,64.96
2023-03-25T21:59:37.270Z,65.16
2023-03-25T22:02:03.921Z,65.10
2023-03-25T22:04:32.844Z,65.14
2023-03-25T22:06:59.257Z,64.99
2023-03-25T22:09:26.169Z,65.01
2023-03-25T22:11:53.126Z,65.15
2023-03-25T22:14:19.852Z,65.12
2023-03-25T22:16:46.326Z,65.10
2023-03-25T22:19:13.097Z,65.30
2023-03-25T22:21:40.211Z,65.29
2023-03-25T22:24:07.889Z,65.28
2023-03-25T22:26:38.593Z,65.49
2023-03-25T22:29:07.190Z,65.37
2023-03-25T22:31:38.805Z,65.43
2023-03-25T22:34:11.560Z,65.36
2023-03-25T22:36:42.203Z,65.44
2023-03-25T22:39:09.729Z,65.59
2023-03-25T22:41:36.422Z,65.46
2023-03-25T22:44:02.913Z,65.59
2023-03-25T22:46:31.420Z,65.46
2023-03-25T22:48:58.317Z,65.54
2023-03-25T22:51:26.696Z,65.51
2023-03-25T22:53:53.211Z,65.47
2023-03-25T22:56:20.769Z,65.43
2023-03-25T22:58:47.294Z,65.44
2023-03-25T23:01:23.057Z,65.40
2023-03-25T23:03:51.447Z,65.47
2023-03-25T23:06:18.402Z,65.41
2023-03-25T23:08:44.833Z,65.38
2023-03-25T23:11:24.481Z,65.38
2023-03-25T23:13:56.715Z,65.35
2023-03-25T23:16:26.481Z,65.50
2023-03-25T23:18:53.752Z,65.36
2023-03-25T23:21:25.975Z,65.61
2023-03-25T23:23:56.263Z,65.53
2023-03-25T23:26:28.278Z,65.50
2023-03-25T23:28:59.722Z,65.62
2023-03-25T23:31:29.232Z,65.59
2023-03-25T23:33:58.340Z,65.69
2023-03-25T23:36:27.520Z,65.51
2023-03-25T23:38:54.402Z,65.58
2023-03-25T23:41:22.454Z,65.68
2023-03-25T23:43:53.994Z,65.65
2023-03-25T23:46:21.857Z,65.72
2023-03-25T23:48:48.654Z,65.73
2023-03-25T23:51:19.638Z,65.75
2023-03-25T23:53:48.266Z,65.88
2023-03-25T23:56:16.676Z,65.83
2023-03-25T23:58:43.920Z,65.90
